Time;durP1;ratioP1;P1;durP2;ratioP2;P2;SDS_P1;SDS_P2;PMS_P1;PMS_P2;Temp;Humidity;BMP_temperature;BMP_pressure;BME280_temperature;BME280_humidity;BME280_pressure;Samples;Min_cycle;Max_cycle;Signal;HPM_P1;HPM_P2
2022/07/29 00:00:51;;;;;;;1.63;1.00;;;19.40;99.90;;;;;;5073587;28;20461;-78
2022/07/29 00:03:18;;;;;;;1.53;0.90;;;19.40;99.90;;;;;;5073662;28;20801;-78
2022/07/29 00:05:44;;;;;;;1.23;1.07;;;19.40;99.90;;;;;;5073617;28;20448;-78
2022/07/29 00:08:12;;;;;;;3.30;1.13;;;19.40;99.90;;;;;;5073582;28;20476;-78
2022/07/29 00:10:39;;;;;;;6.50;1.40;;;19.40;99.90;;;;;;5073440;28;20894;-78
2022/07/29 00:13:06;;;;;;;1.90;1.03;;;19.40;99.90;;;;;;5073171;28;20807;-78
2022/07/29 00:15:33;;;;;;;1.80;1.23;;;19.30;99.90;;;;;;5073482;28;20448;-78
2022/07/29 00:18:00;;;;;;;1.17;1.17;;;19.30;99.90;;;;;;5073492;28;20452;-78
2022/07/29 00:20:26;;;;;;;2.00;1.30;;;19.30;99.90;;;;;;5073635;28;20469;-78
2022/07/29 00:22:53;;;;;;;1.93;0.97;;;19.30;99.90;;;;;;5073421;28;20448;-78
2022/07/29 00:25:21;;;;;;;1.27;0.90;;;19.20;99.90;;;;;;5073382;28;20445;-78
2022/07/29 00:27:48;;;;;;;1.97;1.00;;;19.20;99.90;;;;;;5073066;28;20445;-78
2022/07/29 00:30:15;;;;;;;1.17;1.00;;;19.20;99.90;;;;;;5073246;28;20475;-78
2022/07/29 00:32:41;;;;;;;1.27;0.80;;;19.10;99.90;;;;;;5073229;28;20481;-78
2022/07/29 00:37:53;;;;;;;1.47;1.37;;;19.10;99.90;;;;;;5073303;28;20467;-78
2022/07/29 00:40:22;;;;;;;2.07;1.63;;;19.10;99.90;;;;;;5072968;28;20832;-78
2022/07/29 00:42:51;;;;;;;1.43;1.10;;;19.00;99.90;;;;;;5073284;28;20429;-78
2022/07/29 00:45:18;;;;;;;1.93;1.33;;;19.00;99.90;;;;;;5073227;28;20449;-78
2022/07/29 00:47:46;;;;;;;2.00;0.93;;;19.00;99.90;;;;;;5072864;28;20813;-78
2022/07/29 00:50:13;;;;;;;1.20;0.93;;;19.10;99.90;;;;;;5073051;28;20543;-78
2022/07/29 00:52:41;;;;;;;1.13;1.00;;;19.10;99.90;;;;;;5072729;28;20484;-78
2022/07/29 00:55:10;;;;;;;1.10;0.90;;;19.10;99.90;;;;;;5073352;28;20449;-78
2022/07/29 00:57:39;;;;;;;1.27;1.17;;;19.00;99.90;;;;;;5074433;28;20449;-78
2022/07/29 01:00:08;;;;;;;1.10;1.00;;;19.10;99.90;;;;;;5076668;28;20972;-78
2022/07/29 01:02:35;;;;;;;0.90;0.80;;;19.00;99.90;;;;;;5076673;28;20924;-78
2022/07/29 01:05:03;;;;;;;7.70;1.67;;;18.90;99.90;;;;;;5076559;28;20816;-78
2022/07/29 01:07:31;;;;;;;1.50;1.30;;;19.00;99.90;;;;;;5076882;28;20448;-78
2022/07/29 01:09:58;;;;;;;2.50;1.77;;;19.00;99.90;;;;;;5076745;28;20483;-78
2022/07/29 01:12:27;;;;;;;3.53;1.00;;;19.00;99.90;;;;;;5076414;28;21022;-78
2022/07/29 01:14:56;;;;;;;1.73;1.20;;;19.00;99.90;;;;;;5076599;28;20448;-78
2022/07/29 01:17:27;;;;;;;1.53;0.93;;;19.00;99.90;;;;;;5076726;28;20440;-78
2022/07/29 01:20:02;;;;;;;1.70;1.33;;;18.90;99.90;;;;;;5076611;28;20460;-78
2022/07/29 01:22:36;;;;;;;1.23;1.13;;;18.80;99.90;;;;;;5076543;28;20424;-78
2022/07/29 01:25:21;;;;;;;2.07;1.77;;;18.80;99.90;;;;;;5076265;28;20924;-78
2022/07/29 01:28:14;;;;;;;1.30;0.93;;;18.80;99.90;;;;;;5063344;28;20460;-78
2022/07/29 01:30:45;;;;;;;3.03;1.30;;;18.80;99.90;;;;;;5076560;28;20469;-78
2022/07/29 01:36:02;;;;;;;1.53;0.90;;;18.80;99.90;;;;;;5075794;28;20429;-78
2022/07/29 01:38:29;;;;;;;1.27;1.17;;;18.70;99.90;;;;;;5076369;28;20432;-78
2022/07/29 01:41:04;;;;;;;2.00;1.53;;;18.70;99.90;;;;;;5075702;28;20979;-78
2022/07/29 01:43:38;;;;;;;1.40;1.30;;;18.60;99.90;;;;;;5076195;28;20421;-78
2022/07/29 01:46:12;;;;;;;0.90;0.90;;;18.50;99.90;;;;;;5075924;28;20900;-78
2022/07/29 01:48:43;;;;;;;0.90;0.80;;;18.60;99.90;;;;;;5075597;28;20791;-78
2022/07/29 01:51:17;;;;;;;1.73;1.63;;;18.50;99.90;;;;;;5075946;28;20468;-78
2022/07/29 01:53:51;;;;;;;1.00;0.80;;;18.50;99.90;;;;;;5076008;28;20437;-78
2022/07/29 01:56:20;;;;;;;2.50;1.13;;;18.50;99.90;;;;;;5076884;28;20435;-78
2022/07/29 01:58:49;;;;;;;1.13;0.90;;;18.40;99.90;;;;;;5075890;28;20445;-78
2022/07/29 02:01:18;;;;;;;0.80;0.60;;;18.50;99.90;;;;;;5075631;28;20437;-78
2022/07/29 02:03:47;;;;;;;1.30;0.63;;;18.40;99.90;;;;;;5075901;28;20452;-78
2022/07/29 02:06:18;;;;;;;3.57;1.10;;;18.50;99.90;;;;;;5075799;28;20445;-78
2022/07/29 02:08:46;;;;;;;0.73;0.73;;;18.50;99.90;;;;;;5075686;28;20810;-78
2022/07/29 02:11:13;;;;;;;0.90;0.80;;;18.50;99.90;;;;;;5075657;28;20485;-78
2022/07/29 02:13:41;;;;;;;1.57;0.70;;;18.50;99.90;;;;;;5075655;28;20453;-78
2022/07/29 02:16:10;;;;;;;3.63;1.00;;;18.60;99.90;;;;;;5075660;28;20460;-78
2022/07/29 02:18:42;;;;;;;0.80;0.80;;;18.60;99.90;;;;;;5075594;28;20445;-78
2022/07/29 02:21:09;;;;;;;0.70;0.70;;;18.60;99.90;;;;;;5075633;28;20421;-78
2022/07/29 02:23:38;;;;;;;1.33;0.77;;;18.70;99.90;;;;;;5075169;28;20943;-78
2022/07/29 02:26:06;;;;;;;2.10;0.80;;;18.70;99.90;;;;;;5075548;28;20440;-78
2022/07/29 02:28:34;;;;;;;0.80;0.80;;;18.60;99.90;;;;;;5075410;28;20518;-78
2022/07/29 02:31:03;;;;;;;0.97;0.97;;;18.50;99.90;;;;;;5074951;28;20453;-78
2022/07/29 02:33:32;;;;;;;0.90;0.80;;;18.40;99.90;;;;;;5075297;28;20449;-78
2022/07/29 02:36:02;;;;;;;2.07;0.90;;;18.40;99.90;;;;;;5075265;28;20448;-78
2022/07/29 02:41:19;;;;;;;0.80;0.80;;;18.40;99.90;;;;;;5075122;28;20472;-78
2022/07/29 02:43:49;;;;;;;0.80;0.80;;;18.40;99.90;;;;;;5075138;28;20434;-78
2022/07/29 02:46:28;;;;;;;1.30;0.90;;;18.40;99.90;;;;;;5075097;28;20441;-78
2022/07/29 02:49:00;;;;;;;1.30;1.20;;;18.40;99.90;;;;;;5074983;28;20425;-78
2022/07/29 02:51:34;;;;;;;2.10;0.70;;;18.30;99.90;;;;;;5074927;28;20826;-78
2022/07/29 02:54:05;;;;;;;1.00;0.90;;;18.30;99.90;;;;;;5074960;28;20435;-78
2022/07/29 02:56:34;;;;;;;1.43;1.10;;;18.30;99.90;;;;;;5074939;28;20433;-78
2022/07/29 02:59:05;;;;;;;1.20;1.10;;;18.30;99.90;;;;;;5074711;28;20527;-78
2022/07/29 03:01:34;;;;;;;1.30;1.20;;;18.30;99.90;;;;;;5074790;28;20425;-78
2022/07/29 03:04:04;;;;;;;2.37;1.57;;;18.30;99.90;;;;;;5074703;28;20951;-78
2022/07/29 03:06:35;;;;;;;0.57;0.57;;;18.30;99.90;;;;;;5074742;28;20429;-78
2022/07/29 03:09:02;;;;;;;1.03;1.00;;;18.30;99.90;;;;;;5074282;28;20879;-78
2022/07/29 03:11:30;;;;;;;1.20;1.10;;;18.30;99.90;;;;;;5074505;28;20484;-78
2022/07/29 03:13:57;;;;;;;1.30;0.93;;;18.20;99.90;;;;;;5074419;28;20448;-78
2022/07/29 03:16:25;;;;;;;0.80;0.70;;;18.20;99.90;;;;;;5074739;28;20445;-78
2022/07/29 03:18:53;;;;;;;1.70;1.00;;;18.20;99.90;;;;;;5074350;28;20471;-78
2022/07/29 03:21:19;;;;;;;1.10;0.90;;;18.10;99.90;;;;;;5073676;28;20830;-78
2022/07/29 03:23:47;;;;;;;1.07;0.80;;;18.10;99.90;;;;;;5074306;28;20444;-78
2022/07/29 03:26:15;;;;;;;0.80;0.80;;;18.10;99.90;;;;;;5073988;28;20805;-77
2022/07/29 03:28:41;;;;;;;0.80;0.80;;;18.10;99.90;;;;;;5074137;28;20449;-76
2022/07/29 03:31:08;;;;;;;0.73;0.70;;;18.00;99.90;;;;;;5073893;28;20809;-77
2022/07/29 03:33:35;;;;;;;1.27;1.03;;;18.00;99.90;;;;;;5074050;28;20491;-77
2022/07/29 03:36:02;;;;;;;0.80;0.80;;;18.00;99.90;;;;;;5074047;28;20952;-77
2022/07/29 03:38:31;;;;;;;2.30;1.00;;;18.10;99.90;;;;;;5074044;28;20502;-76
2022/07/29 03:41:03;;;;;;;1.03;0.80;;;18.10;99.90;;;;;;5073626;28;20483;-77
2022/07/29 03:43:32;;;;;;;0.60;0.60;;;18.10;99.90;;;;;;5074010;28;20432;-76
2022/07/29 03:46:02;;;;;;;1.13;1.00;;;18.10;99.90;;;;;;5073925;28;20441;-76
2022/07/29 03:48:33;;;;;;;2.03;0.90;;;18.10;99.90;;;;;;5073916;28;20508;-76
2022/07/29 03:51:00;;;;;;;1.43;1.33;;;18.10;99.90;;;;;;5073791;28;20476;-76
2022/07/29 03:53:27;;;;;;;1.70;0.77;;;18.10;99.90;;;;;;5073736;28;20499;-77
2022/07/29 03:55:59;;;;;;;2.40;0.83;;;18.10;99.90;;;;;;5073735;28;20436;-76
2022/07/29 03:58:28;;;;;;;0.70;0.70;;;18.10;99.90;;;;;;5073443;28;20932;-76
2022/07/29 04:00:55;;;;;;;0.70;0.70;;;18.10;99.90;;;;;;5073606;28;20460;-77
2022/07/29 04:03:23;;;;;;;0.93;0.80;;;18.00;99.90;;;;;;5073675;28;20445;-77
2022/07/29 04:06:00;;;;;;;0.80;0.80;;;18.00;99.90;;;;;;5073343;28;20986;-76
2022/07/29 04:08:26;;;;;;;1.13;0.90;;;18.00;99.90;;;;;;5073653;28;20546;-76
2022/07/29 04:10:53;;;;;;;0.80;0.80;;;18.00;99.90;;;;;;5073187;28;20980;-76
2022/07/29 04:13:20;;;;;;;0.83;0.83;;;18.00;99.90;;;;;;5073135;28;20479;-76
2022/07/29 04:15:48;;;;;;;0.83;0.83;;;18.00;99.90;;;;;;5073673;28;20458;-76
2022/07/29 04:18:15;;;;;;;1.20;1.10;;;18.00;99.90;;;;;;5073421;28;20493;-76
2022/07/29 04:20:42;;;;;;;0.47;0.47;;;18.00;99.90;;;;;;5073585;28;20476;-77
2022/07/29 04:23:09;;;;;;;1.47;0.70;;;17.90;99.90;;;;;;5073405;28;20441;-77
2022/07/29 04:25:38;;;;;;;1.23;0.80;;;18.00;99.90;;;;;;5073089;28;20444;-77
2022/07/29 04:28:05;;;;;;;0.90;0.77;;;18.00;99.90;;;;;;5073349;28;20463;-77
2022/07/29 04:30:33;;;;;;;1.10;0.70;;;18.00;99.90;;;;;;5073256;28;20479;-77
2022/07/29 04:33:01;;;;;;;0.60;0.50;;;18.00;99.90;;;;;;5073123;28;20837;-77
2022/07/29 04:35:29;;;;;;;0.97;0.50;;;18.00;99.90;;;;;;5072988;28;20449;-77
2022/07/29 04:37:55;;;;;;;0.60;0.50;;;18.00;99.90;;;;;;5072957;28;20958;-77
2022/07/29 04:40:22;;;;;;;0.60;0.60;;;18.00;99.90;;;;;;5072993;28;20465;-77
2022/07/29 04:42:49;;;;;;;1.00;0.70;;;18.00;99.90;;;;;;5073235;28;20436;-77
2022/07/29 04:45:16;;;;;;;0.80;0.80;;;18.10;99.90;;;;;;5072888;28;20448;-77
2022/07/29 04:47:42;;;;;;;1.50;1.23;;;18.10;99.90;;;;;;5072876;28;20941;-77
2022/07/29 04:50:11;;;;;;;0.57;0.57;;;18.20;99.90;;;;;;5073096;28;20469;-77
2022/07/29 04:52:38;;;;;;;3.23;1.30;;;18.30;99.90;;;;;;5073018;28;20483;-76
2022/07/29 04:55:06;;;;;;;1.03;0.90;;;18.40;99.90;;;;;;5072717;28;20830;-77
2022/07/29 04:57:33;;;;;;;1.03;0.70;;;18.40;99.90;;;;;;5072732;28;20824;-77
2022/07/29 05:00:00;;;;;;;1.33;0.97;;;18.50;99.90;;;;;;5073025;28;20881;-77
2022/07/29 05:02:27;;;;;;;0.80;0.80;;;18.60;99.90;;;;;;5073052;28;20441;-77
2022/07/29 05:04:54;;;;;;;1.00;0.90;;;18.70;99.90;;;;;;5073038;28;20449;-77
2022/07/29 05:07:22;;;;;;;0.57;0.57;;;18.80;99.90;;;;;;5072738;28;21046;-77
2022/07/29 05:09:48;;;;;;;1.40;0.70;;;18.80;99.90;;;;;;5073218;28;20460;-77
2022/07/29 05:12:15;;;;;;;0.80;0.63;;;18.90;99.90;;;;;;5072880;28;20484;-77
2022/07/29 05:14:42;;;;;;;0.70;0.50;;;18.90;99.90;;;;;;5072943;28;20440;-78
2022/07/29 05:17:09;;;;;;;0.80;0.70;;;19.00;99.90;;;;;;5072884;28;20444;-78
2022/07/29 05:19:35;;;;;;;1.23;0.83;;;19.10;99.90;;;;;;5072474;28;20866;-78
2022/07/29 05:22:02;;;;;;;1.27;0.50;;;19.10;99.90;;;;;;5072904;28;20449;-78
2022/07/29 05:24:30;;;;;;;0.60;0.60;;;19.20;99.90;;;;;;5072839;28;20436;-78
2022/07/29 05:26:57;;;;;;;0.80;0.70;;;19.20;99.90;;;;;;5072489;28;20791;-78
2022/07/29 05:29:24;;;;;;;0.47;0.47;;;19.30;99.90;;;;;;5072941;28;20464;-78
2022/07/29 05:31:52;;;;;;;0.73;0.70;;;19.40;99.90;;;;;;5072678;28;20457;-78
2022/07/29 05:34:19;;;;;;;0.60;0.60;;;19.40;99.90;;;;;;5072386;28;20436;-78
2022/07/29 05:36:46;;;;;;;0.60;0.60;;;19.40;99.90;;;;;;5072703;28;20525;-78
2022/07/29 05:39:13;;;;;;;0.77;0.77;;;19.50;99.90;;;;;;5072407;28;21074;-78
2022/07/29 05:41:41;;;;;;;0.53;0.53;;;19.50;99.90;;;;;;5072446;28;20508;-78
2022/07/29 05:44:08;;;;;;;0.80;0.63;;;19.50;99.90;;;;;;5074649;28;20448;-78
2022/07/29 05:46:35;;;;;;;1.23;0.73;;;19.40;99.90;;;;;;5076133;28;20949;-78
2022/07/29 05:49:02;;;;;;;1.90;1.00;;;19.50;99.90;;;;;;5076104;28;20456;-78
2022/07/29 05:51:29;;;;;;;0.73;0.73;;;19.50;99.90;;;;;;5076058;28;20494;-78
2022/07/29 05:53:56;;;;;;;1.57;1.13;;;19.60;99.90;;;;;;5075970;28;20549;-78
2022/07/29 05:56:23;;;;;;;0.80;0.80;;;19.60;99.90;;;;;;5076170;28;20448;-78
2022/07/29 05:58:51;;;;;;;8.97;1.20;;;19.70;99.90;;;;;;5075561;28;20523;-78
2022/07/29 06:01:18;;;;;;;2.00;1.00;;;19.70;99.90;;;;;;5075909;28;20441;-78
2022/07/29 06:03:45;;;;;;;1.33;0.97;;;19.80;99.90;;;;;;5075873;28;20457;-78
2022/07/29 06:06:12;;;;;;;1.03;0.90;;;19.90;99.90;;;;;;5075521;28;20445;-78
2022/07/29 06:08:40;;;;;;;1.13;1.00;;;19.80;99.90;;;;;;5076001;28;20451;-78
2022/07/29 06:11:08;;;;;;;0.80;0.80;;;19.80;99.90;;;;;;5075672;28;20974;-78
2022/07/29 06:13:34;;;;;;;0.97;0.80;;;19.90;99.90;;;;;;5075644;28;20512;-78
2022/07/29 06:16:03;;;;;;;1.00;0.80;;;20.10;99.90;;;;;;5075678;28;20484;-78
2022/07/29 06:18:30;;;;;;;1.60;1.00;;;20.10;99.90;;;;;;5075267;28;20453;-78
2022/07/29 06:20:58;;;;;;;0.90;0.77;;;20.30;99.90;;;;;;5075476;28;20468;-78
2022/07/29 06:23:25;;;;;;;0.80;0.77;;;20.40;99.90;;;;;;5075514;28;20445;-78
2022/07/29 06:25:51;;;;;;;1.13;1.00;;;20.60;99.90;;;;;;5075222;28;20889;-78
2022/07/29 06:28:18;;;;;;;2.13;1.30;;;20.80;99.90;;;;;;5075132;28;20451;-78
2022/07/29 06:30:45;;;;;;;1.40;1.03;;;20.80;99.90;;;;;;5075302;28;20490;-78
2022/07/29 06:33:19;;;;;;;1.23;1.10;;;21.00;99.90;;;;;;5075216;28;20480;-78
2022/07/29 06:35:47;;;;;;;1.50;1.40;;;21.20;99.90;;;;;;5075379;28;20429;-78
2022/07/29 06:38:14;;;;;;;1.20;1.10;;;21.50;99.90;;;;;;5074938;28;20444;-79
2022/07/29 06:41:00;;;;;;;1.37;1.17;;;21.30;99.90;;;;;;5075078;28;20476;-78
2022/07/29 06:43:29;;;;;;;1.87;1.30;;;21.40;99.90;;;;;;5075188;28;20443;-78
2022/07/29 06:45:56;;;;;;;1.90;1.20;;;21.50;99.90;;;;;;5075108;28;20448;-79
2022/07/29 06:48:24;;;;;;;1.87;1.30;;;21.50;99.90;;;;;;5075157;28;20444;-78
2022/07/29 06:50:51;;;;;;;1.03;1.03;;;21.60;99.90;;;;;;5074892;28;20468;-78
2022/07/29 06:53:18;;;;;;;1.60;1.03;;;21.60;99.90;;;;;;5074856;28;20479;-78
2022/07/29 06:55:44;;;;;;;1.13;1.00;;;21.70;99.90;;;;;;5073829;28;20444;-78
2022/07/29 06:58:13;;;;;;;2.50;1.03;;;21.80;99.90;;;;;;5074808;28;20459;-78
2022/07/29 07:00:40;;;;;;;1.37;1.10;;;21.70;99.90;;;;;;5074725;28;20475;-79
2022/07/29 07:03:12;;;;;;;1.03;0.93;;;22.00;99.90;;;;;;5074886;28;20440;-79
2022/07/29 07:05:40;;;;;;;1.30;1.20;;;22.10;99.90;;;;;;5074680;28;20455;-80
2022/07/29 07:08:07;;;;;;;0.80;0.80;;;22.30;99.90;;;;;;5074628;28;20445;-79
2022/07/29 07:10:34;;;;;;;1.17;1.13;;;22.50;99.90;;;;;;5074544;28;20499;-79
2022/07/29 07:13:01;;;;;;;2.20;1.30;;;22.60;99.90;;;;;;5074439;28;20484;-79
2022/07/29 07:15:28;;;;;;;2.93;1.77;;;22.70;99.90;;;;;;5074484;28;20447;-79
2022/07/29 07:17:55;;;;;;;1.37;1.17;;;22.70;99.90;;;;;;5074484;28;20455;-79
2022/07/29 07:20:47;;;;;;;3.20;1.87;;;22.70;99.90;;;;;;5074068;28;20461;-79
2022/07/29 07:23:14;;;;;;;1.53;1.10;;;22.80;99.90;;;;;;5074015;28;20812;-79
2022/07/29 07:25:41;;;;;;;1.73;1.53;;;22.70;99.90;;;;;;5074332;28;20206;-79
2022/07/29 07:28:08;;;;;;;1.63;1.53;;;22.70;99.90;;;;;;5074259;28;20444;-79
2022/07/29 07:30:35;;;;;;;1.43;1.13;;;22.70;99.90;;;;;;5074174;28;20464;-79
2022/07/29 07:33:02;;;;;;;5.70;1.80;;;22.80;99.90;;;;;;5073771;28;20998;-79
2022/07/29 07:35:28;;;;;;;1.90;1.00;;;23.10;99.90;;;;;;5074120;28;20447;-79
2022/07/29 07:37:57;;;;;;;1.70;1.50;;;23.40;99.90;;;;;;5074085;28;20448;-79
2022/07/29 07:40:24;;;;;;;1.50;1.40;;;23.60;99.90;;;;;;5073521;28;20732;-79
2022/07/29 07:42:51;;;;;;;1.97;1.70;;;23.70;99.90;;;;;;5073713;28;20642;-79
2022/07/29 07:45:18;;;;;;;1.52;1.35;;;23.80;99.90;;;;;;5073950;28;20206;-79
2022/07/29 07:47:45;;;;;;;1.40;1.13;;;23.70;99.90;;;;;;5073908;28;20255;-79
2022/07/29 07:50:12;;;;;;;1.53;1.43;;;23.80;99.90;;;;;;5073775;28;20218;-79
2022/07/29 07:52:48;;;;;;;1.87;1.30;;;23.80;99.90;;;;;;5074289;28;20213;-79
2022/07/29 07:55:16;;;;;;;1.83;1.58;;;24.10;99.90;;;;;;5073867;28;20189;-79
2022/07/29 07:57:43;;;;;;;2.17;1.40;;;24.20;99.90;;;;;;5073977;28;20198;-79
2022/07/29 08:00:11;;;;;;;1.75;1.25;;;24.30;99.90;;;;;;5073641;28;20226;-79
2022/07/29 08:02:38;;;;;;;2.60;1.35;;;24.50;99.90;;;;;;5073640;28;20584;-83
2022/07/29 08:05:06;;;;;;;1.92;1.48;;;24.80;99.90;;;;;;5073296;28;20662;-82
2022/07/29 08:07:33;;;;;;;1.52;1.42;;;25.00;99.90;;;;;;5072955;28;20597;-82
2022/07/29 08:09:59;;;;;;;1.42;1.33;;;25.20;99.90;;;;;;5073523;28;20221;-82
2022/07/29 08:12:28;;;;;;;1.73;1.63;;;25.20;99.90;;;;;;5073230;28;20206;-82
2022/07/29 08:14:54;;;;;;;1.45;1.35;;;25.40;99.90;;;;;;5073615;28;20229;-81
2022/07/29 08:17:21;;;;;;;2.17;2.00;;;25.50;99.90;;;;;;5073198;28;20202;-80
2022/07/29 08:19:49;;;;;;;1.70;1.60;;;25.80;99.90;;;;;;5073446;28;20222;-79
2022/07/29 08:22:16;;;;;;;2.47;1.48;;;25.90;99.90;;;;;;5073158;28;20206;-79
2022/07/29 08:24:52;;;;;;;2.10;1.95;;;26.10;99.90;;;;;;5073667;28;20202;-79
2022/07/29 08:27:20;;;;;;;2.63;1.80;;;26.10;99.90;;;;;;5073445;28;20281;-79
2022/07/29 08:29:48;;;;;;;1.45;1.10;;;26.30;99.90;;;;;;5073029;28;20267;-80
2022/07/29 08:32:15;;;;;;;1.80;1.70;;;26.40;99.90;;;;;;5073341;28;20220;-79
2022/07/29 08:34:44;;;;;;;1.52;1.42;;;26.50;99.90;;;;;;5073271;28;20221;-79
2022/07/29 08:37:11;;;;;;;1.73;1.63;;;26.50;99.90;;;;;;5073214;28;20267;-79
2022/07/29 08:39:37;;;;;;;1.88;1.77;;;26.50;99.90;;;;;;5073042;28;20730;-79
2022/07/29 08:42:04;;;;;;;1.48;1.38;;;26.50;99.90;;;;;;5072941;28;20234;-79
2022/07/29 08:44:33;;;;;;;2.17;1.67;;;26.50;99.90;;;;;;5073281;28;20206;-79
2022/07/29 08:47:01;;;;;;;2.47;1.92;;;26.50;99.90;;;;;;5072942;28;20704;-79
2022/07/29 08:49:28;;;;;;;5.53;1.88;;;26.50;99.90;;;;;;5073142;28;20229;-80
2022/07/29 08:51:57;;;;;;;2.28;1.73;;;26.80;99.90;;;;;;5073164;28;20202;-79
2022/07/29 08:54:24;;;;;;;2.08;1.70;;;26.80;99.90;;;;;;5073081;28;20226;-80
2022/07/29 08:56:52;;;;;;;1.77;1.67;;;26.80;99.90;;;;;;5073148;28;20573;-79
2022/07/29 08:59:21;;;;;;;2.20;1.80;;;26.90;99.90;;;;;;5073260;28;20222;-79
2022/07/29 09:01:48;;;;;;;1.58;1.45;;;26.90;99.90;;;;;;5072771;28;20236;-79
2022/07/29 09:04:18;;;;;;;1.88;1.77;;;27.00;99.90;;;;;;5072755;28;20696;-79
2022/07/29 09:06:47;;;;;;;1.80;1.70;;;26.90;99.90;;;;;;5072743;28;20213;-79
2022/07/29 09:09:15;;;;;;;1.77;1.67;;;26.90;99.90;;;;;;5072957;28;20218;-79
2022/07/29 09:11:42;;;;;;;6.18;2.10;;;26.70;99.90;;;;;;5073020;28;20201;-79
2022/07/29 09:14:11;;;;;;;1.70;1.60;;;26.80;99.90;;;;;;5072857;28;20221;-79
2022/07/29 09:16:50;;;;;;;2.45;1.77;;;26.80;99.90;;;;;;5072706;28;20562;-79
2022/07/29 09:19:27;;;;;;;2.83;1.67;;;27.10;99.90;;;;;;5075212;28;20226;-79
2022/07/29 09:22:01;;;;;;;3.42;1.73;;;27.20;99.90;;;;;;5076706;28;20536;-79
2022/07/29 09:24:38;;;;;;;1.73;1.63;;;27.40;99.90;;;;;;5076718;28;20244;-79
2022/07/29 09:27:10;;;;;;;1.60;1.50;;;27.50;99.90;;;;;;5076674;28;20240;-79
2022/07/29 09:29:37;;;;;;;1.73;1.48;;;27.40;99.90;;;;;;5076528;28;20275;-79
2022/07/29 09:32:09;;;;;;;1.45;1.35;;;27.30;99.90;;;;;;5076492;28;20202;-79
2022/07/29 09:34:38;;;;;;;1.90;1.80;;;27.30;99.90;;;;;;5076475;28;20620;-79
2022/07/29 09:37:05;;;;;;;1.75;1.52;;;27.30;99.90;;;;;;5076413;28;20198;-79
2022/07/29 09:39:33;;;;;;;2.45;1.88;;;27.40;99.90;;;;;;5076312;28;20279;-79
2022/07/29 09:42:01;;;;;;;2.10;1.90;;;27.30;99.90;;;;;;5075914;28;20238;-78
2022/07/29 09:44:42;;;;;;;1.55;1.33;;;27.20;99.90;;;;;;5076233;28;20206;-79
2022/07/29 09:47:09;;;;;;;1.88;1.77;;;27.10;99.90;;;;;;5076240;28;20186;-78
2022/07/29 09:49:52;;;;;;;2.25;1.98;;;27.10;99.90;;;;;;5076138;28;20249;-79
2022/07/29 09:52:19;;;;;;;2.03;1.88;;;27.10;99.90;;;;;;5075913;28;20748;-79
2022/07/29 09:54:46;;;;;;;2.28;2.08;;;27.10;99.90;;;;;;5076050;28;20225;-79
2022/07/29 09:57:24;;;;;;;1.58;1.48;;;27.20;99.90;;;;;;5076083;28;20209;-80
2022/07/29 09:59:57;;;;;;;1.95;1.75;;;27.40;99.90;;;;;;5075690;28;20222;-79
2022/07/29 10:02:29;;;;;;;1.65;1.55;;;27.70;99.90;;;;;;5076024;28;20189;-79
2022/07/29 10:04:58;;;;;;;2.08;1.88;;;27.90;99.90;;;;;;5075948;28;20186;-79
2022/07/29 10:07:25;;;;;;;2.38;1.83;;;27.90;99.90;;;;;;5076112;28;20202;-80
2022/07/29 10:09:55;;;;;;;1.40;1.30;;;28.10;99.90;;;;;;5075808;28;20233;-79
2022/07/29 10:12:23;;;;;;;1.92;1.80;;;28.20;99.90;;;;;;5075823;28;20202;-79
2022/07/29 10:14:50;;;;;;;1.77;1.67;;;28.40;99.90;;;;;;5075665;28;20229;-79
2022/07/29 10:17:19;;;;;;;2.60;2.38;;;28.70;99.90;;;;;;5075698;28;20213;-79
2022/07/29 10:19:45;;;;;;;2.03;1.92;;;29.00;99.90;;;;;;5075273;28;20743;-79
2022/07/29 10:22:13;;;;;;;2.03;1.75;;;29.00;99.90;;;;;;5075317;28;20704;-79
2022/07/29 10:24:40;;;;;;;1.80;1.70;;;29.00;99.60;;;;;;5075557;28;20203;-78
2022/07/29 10:27:09;;;;;;;1.52;1.42;;;29.00;99.90;;;;;;5075530;28;20209;-79
2022/07/29 10:29:36;;;;;;;1.30;1.20;;;28.80;99.90;;;;;;5075208;28;20222;-78
2022/07/29 10:32:20;;;;;;;5.75;1.65;;;28.50;99.90;;;;;;5075466;28;20202;-79
2022/07/29 10:35:01;;;;;;;2.25;2.05;;;27.90;99.90;;;;;;5075362;28;20209;-79
2022/07/29 10:37:38;;;;;;;2.40;1.80;;;27.20;99.90;;;;;;5075312;28;20193;-79
2022/07/29 10:43:07;;;;;;;1.10;1.10;;;26.40;99.90;;;;;;5074931;28;20185;-78
2022/07/29 10:45:34;;;;;;;1.08;1.08;;;26.10;99.90;;;;;;5074936;28;20664;-78
2022/07/29 10:48:05;;;;;;;2.58;1.63;;;25.60;99.90;;;;;;5074794;28;20685;-78
2022/07/29 10:50:54;;;;;;;1.40;1.30;;;25.10;99.90;;;;;;5074669;28;20237;-78
2022/07/29 10:53:23;;;;;;;12.80;1.90;;;24.60;99.90;;;;;;5075081;28;20209;-81
2022/07/29 10:55:51;;;;;;;3.13;1.48;;;24.00;99.90;;;;;;5074902;28;20225;-81
2022/07/29 10:58:20;;;;;;;1.40;1.30;;;23.30;99.90;;;;;;5074976;28;20206;-80
2022/07/29 11:00:48;;;;;;;1.10;1.00;;;22.50;99.90;;;;;;5074612;28;20605;-81
2022/07/29 11:03:46;;;;;;;3.00;1.23;;;21.70;99.90;;;;;;5074802;28;20444;-80
2022/07/29 11:06:14;;;;;;;1.27;1.17;;;21.00;99.90;;;;;;5074443;28;20455;-80
2022/07/29 11:08:42;;;;;;;1.13;1.03;;;20.60;99.90;;;;;;5074655;28;20446;-80
2022/07/29 11:11:40;;;;;;;1.83;1.10;;;20.20;99.90;;;;;;5074695;28;20452;-80
2022/07/29 11:14:07;;;;;;;2.33;1.30;;;20.00;99.90;;;;;;5074557;28;20498;-81
2022/07/29 11:17:03;;;;;;;1.40;1.20;;;19.90;99.90;;;;;;5074568;28;20440;-81
2022/07/29 11:19:30;;;;;;;3.47;1.17;;;19.90;99.90;;;;;;5074423;28;20468;-81
2022/07/29 11:21:57;;;;;;;0.93;0.67;;;19.80;99.90;;;;;;5074439;28;20453;-81
2022/07/29 11:24:28;;;;;;;1.10;0.97;;;19.80;99.90;;;;;;5074426;28;20437;-81
2022/07/29 11:27:16;;;;;;;2.20;1.07;;;19.80;99.90;;;;;;5074123;28;20432;-81
2022/07/29 11:29:52;;;;;;;0.90;0.90;;;19.80;99.90;;;;;;5074104;28;20546;-81
2022/07/29 11:32:20;;;;;;;2.03;1.37;;;19.70;99.90;;;;;;5074285;28;20425;-81
2022/07/29 11:34:48;;;;;;;2.30;1.10;;;19.60;99.90;;;;;;5074110;28;20484;-80
2022/07/29 11:37:23;;;;;;;1.23;1.13;;;19.60;99.90;;;;;;5074101;28;20449;-80
2022/07/29 11:40:11;;;;;;;1.87;1.47;;;19.60;99.90;;;;;;5074026;28;20464;-81
2022/07/29 11:42:42;;;;;;;1.00;0.83;;;19.70;99.90;;;;;;5073513;28;20512;-81
2022/07/29 11:45:13;;;;;;;1.90;1.27;;;19.70;99.90;;;;;;5073982;28;20439;-81
2022/07/29 11:47:42;;;;;;;2.40;1.63;;;19.70;99.90;;;;;;5073989;28;20421;-81
2022/07/29 11:50:10;;;;;;;0.80;0.80;;;19.60;99.90;;;;;;5073551;28;20460;-81
2022/07/29 11:52:44;;;;;;;1.23;1.10;;;19.50;99.90;;;;;;5073846;28;20460;-80
2022/07/29 11:55:15;;;;;;;1.03;0.93;;;19.40;99.90;;;;;;5073736;28;20471;-81
2022/07/29 11:57:48;;;;;;;1.07;0.90;;;19.30;99.90;;;;;;5073494;28;20909;-80
2022/07/29 12:00:30;;;;;;;0.83;0.70;;;19.30;99.90;;;;;;5073666;28;20460;-80
2022/07/29 12:02:58;;;;;;;1.10;0.97;;;19.40;99.90;;;;;;5073441;28;20487;-80
2022/07/29 12:05:33;;;;;;;1.30;1.20;;;19.50;99.90;;;;;;5073975;28;20456;-80
2022/07/29 12:08:06;;;;;;;1.30;0.90;;;19.60;99.90;;;;;;5073296;28;20944;-80
2022/07/29 12:10:35;;;;;;;1.13;0.97;;;19.90;99.90;;;;;;5073581;28;20546;-80
2022/07/29 12:13:01;;;;;;;2.30;1.63;;;20.20;99.90;;;;;;5073955;28;20440;-79
2022/07/29 12:15:28;;;;;;;0.60;0.60;;;20.40;99.90;;;;;;5073473;28;20484;-80
2022/07/29 12:17:55;;;;;;;1.30;1.10;;;20.70;99.90;;;;;;5073203;28;20445;-79
2022/07/29 12:20:26;;;;;;;0.77;0.77;;;20.90;99.90;;;;;;5073500;28;20840;-79
2022/07/29 12:22:54;;;;;;;1.30;0.93;;;21.10;99.90;;;;;;5073487;28;20448;-79
2022/07/29 12:25:22;;;;;;;1.93;1.57;;;21.20;99.90;;;;;;5073486;28;20875;-80
2022/07/29 12:27:58;;;;;;;1.43;1.33;;;21.20;99.90;;;;;;5073485;28;20452;-79
2022/07/29 12:30:35;;;;;;;1.60;1.50;;;21.20;99.90;;;;;;5073113;28;20464;-79
2022/07/29 12:33:10;;;;;;;1.60;1.20;;;21.20;99.90;;;;;;5073090;28;20907;-79
2022/07/29 12:35:37;;;;;;;2.90;1.47;;;21.20;99.90;;;;;;5073373;28;20467;-79
2022/07/29 12:38:04;;;;;;;1.17;0.90;;;21.10;99.90;;;;;;5073316;28;20444;-79
2022/07/29 12:40:31;;;;;;;1.80;1.47;;;21.10;99.90;;;;;;5072985;28;20480;-79
2022/07/29 12:43:13;;;;;;;0.97;0.87;;;21.10;99.90;;;;;;5073342;28;20433;-79
2022/07/29 12:45:42;;;;;;;1.33;1.00;;;21.00;99.90;;;;;;5073266;28;20432;-79
2022/07/29 12:48:09;;;;;;;1.57;1.17;;;20.90;99.90;;;;;;5073277;28;20451;-79
2022/07/29 12:50:37;;;;;;;1.50;1.40;;;20.90;99.90;;;;;;5073183;28;20460;-79
2022/07/29 12:53:13;;;;;;;1.20;1.10;;;20.70;99.90;;;;;;5075388;28;20456;-79
2022/07/29 12:55:41;;;;;;;1.30;1.20;;;20.40;99.90;;;;;;5077521;28;20488;-80
2022/07/29 12:58:08;;;;;;;2.03;1.83;;;20.10;99.90;;;;;;5077218;28;20448;-80
2022/07/29 13:00:36;;;;;;;2.40;1.70;;;19.80;99.90;;;;;;5077099;28;20480;-80
2022/07/29 13:03:02;;;;;;;1.63;1.37;;;19.60;99.90;;;;;;5077089;28;20449;-80
2022/07/29 13:05:50;;;;;;;0.93;0.80;;;19.50;99.90;;;;;;5076773;28;20959;-80
2022/07/29 13:08:19;;;;;;;2.47;1.40;;;19.30;99.90;;;;;;5071823;28;20539;-80
2022/07/29 13:10:46;;;;;;;1.53;1.43;;;19.30;99.90;;;;;;5076926;28;20471;-80